Time;durP1;ratioP1;P1;durP2;ratioP2;P2;SDS_P1;SDS_P2;PMS_P1;PMS_P2;Temp;Humidity;BMP_temperature;BMP_pressure;BME280_temperature;BME280_humidity;BME280_pressure;Samples;Min_cycle;Max_cycle;Signal;HPM_P1;HPM_P2
2022/05/27 00:02:16;;;;;;;1999.90;999.90;;;15.90;99.90;;;;;;5032493;28;20926;-68
2022/05/27 00:04:43;;;;;;;1999.90;999.90;;;15.80;99.90;;;;;;5028543;28;20467;-68
2022/05/27 00:07:10;;;;;;;1999.90;999.90;;;15.90;99.90;;;;;;5027344;28;20456;-69
2022/05/27 00:09:36;;;;;;;1999.90;999.90;;;15.80;99.90;;;;;;5028702;28;20513;-69
2022/05/27 00:12:06;;;;;;;1999.90;999.90;;;16.00;99.90;;;;;;5025603;28;20482;-69
2022/05/27 00:14:32;;;;;;;1999.90;999.90;;;16.00;99.90;;;;;;5030362;28;20466;-69
2022/05/27 00:16:59;;;;;;;1999.90;999.90;;;16.10;99.90;;;;;;5027469;28;20513;-69
2022/05/27 00:19:26;;;;;;;1999.90;999.90;;;16.00;99.90;;;;;;5025490;28;20467;-69
2022/05/27 00:21:52;;;;;;;1999.90;999.90;;;16.00;99.90;;;;;;5044829;22;20488;-66
2022/05/27 00:24:19;;;;;;;1999.90;999.90;;;16.00;99.90;;;;;;5051617;28;20807;-67
2022/05/27 00:26:45;;;;;;;1999.90;999.90;;;15.90;99.90;;;;;;5046535;28;20466;-65
2022/05/27 00:29:13;;;;;;;1999.90;999.90;;;16.00;99.90;;;;;;5046512;28;20979;-67
2022/05/27 00:31:40;;;;;;;1999.90;999.90;;;16.00;99.90;;;;;;5049187;28;20458;-67
2022/05/27 00:34:09;;;;;;;1999.90;999.90;;;16.10;99.90;;;;;;5045028;28;20467;-68
2022/05/27 00:36:36;;;;;;;1999.90;999.90;;;16.10;99.90;;;;;;5042725;28;20540;-67
2022/05/27 00:39:03;;;;;;;1999.90;999.90;;;16.10;99.90;;;;;;5043340;28;20522;-67
2022/05/27 00:41:30;;;;;;;1999.90;999.90;;;16.20;99.90;;;;;;5044001;28;20474;-67
2022/05/27 00:43:57;;;;;;;1999.90;999.90;;;16.20;99.90;;;;;;5040485;28;20486;-67
2022/05/27 00:46:29;;;;;;;1999.90;999.90;;;16.20;99.90;;;;;;5044585;28;20512;-67
2022/05/27 00:49:15;;;;;;;1999.90;999.90;;;16.30;99.90;;;;;;5042193;28;20529;-66
2022/05/27 00:51:47;;;;;;;1999.90;999.90;;;16.30;99.90;;;;;;5043182;28;20454;-68
2022/05/27 00:54:17;;;;;;;1999.90;999.90;;;16.30;99.90;;;;;;5042522;28;21118;-67
2022/05/27 00:56:48;;;;;;;1999.90;999.90;;;16.30;99.90;;;;;;5042748;28;20943;-67
2022/05/27 00:59:19;;;;;;;1999.90;999.90;;;16.30;99.90;;;;;;5042782;28;20455;-67
2022/05/27 01:01:47;;;;;;;1999.90;999.90;;;16.40;99.90;;;;;;5041639;28;20520;-65
2022/05/27 01:04:15;;;;;;;1999.90;999.90;;;16.30;99.90;;;;;;5042858;28;20955;-67
2022/05/27 01:06:41;;;;;;;1999.90;999.90;;;16.20;99.90;;;;;;5042399;28;20921;-68
2022/05/27 01:09:08;;;;;;;1999.90;999.90;;;16.00;99.90;;;;;;5040834;28;20885;-67
2022/05/27 01:11:49;;;;;;;1999.90;999.90;;;15.80;99.90;;;;;;5041567;28;20516;-67
2022/05/27 01:14:25;;;;;;;1999.90;999.90;;;15.70;99.90;;;;;;5043998;28;20941;-67
2022/05/27 01:17:01;;;;;;;1999.90;999.90;;;15.60;99.90;;;;;;5039681;28;20860;-67
2022/05/27 01:22:45;;;;;;;1999.90;999.90;;;15.50;99.90;;;;;;5043458;28;20591;-67
2022/05/27 01:25:37;;;;;;;1999.90;999.90;;;15.40;99.90;;;;;;5041453;28;20500;-67
2022/05/27 01:28:32;;;;;;;1999.90;999.90;;;15.50;99.90;;;;;;5040687;28;20478;-67
2022/05/27 01:31:10;;;;;;;1999.90;999.90;;;15.50;99.90;;;;;;5037245;28;20513;-67
2022/05/27 01:33:41;;;;;;;1999.90;999.90;;;15.50;99.90;;;;;;5041986;28;20478;-67
2022/05/27 01:36:27;;;;;;;1999.90;999.90;;;15.40;99.90;;;;;;5042059;28;20446;-66
2022/05/27 01:39:04;;;;;;;1999.90;999.90;;;15.50;99.90;;;;;;5039985;28;20870;-66
2022/05/27 01:41:43;;;;;;;1999.90;999.90;;;15.40;99.90;;;;;;5040260;28;20478;-66
2022/05/27 01:44:15;;;;;;;1999.90;999.90;;;15.40;99.90;;;;;;5042077;28;20484;-68
2022/05/27 01:46:45;;;;;;;1999.90;999.90;;;15.50;99.90;;;;;;5042773;28;20934;-67
2022/05/27 01:49:22;;;;;;;1999.90;999.90;;;15.50;99.90;;;;;;5044326;28;20889;-67
2022/05/27 01:51:55;;;;;;;1999.90;999.90;;;15.50;99.90;;;;;;5041778;28;20473;-66
2022/05/27 01:54:27;;;;;;;1999.90;999.90;;;15.40;99.90;;;;;;5046870;28;20462;-67
2022/05/27 01:56:56;;;;;;;1999.90;999.90;;;15.30;99.90;;;;;;5043850;28;20459;-67
2022/05/27 01:59:28;;;;;;;1999.90;999.90;;;15.40;99.90;;;;;;5048281;28;20504;-67
2022/05/27 02:02:01;;;;;;;1999.90;999.90;;;15.30;99.90;;;;;;5043397;28;20482;-67
2022/05/27 02:04:32;;;;;;;1999.90;999.90;;;15.40;99.90;;;;;;5048669;28;20734;-67
2022/05/27 02:07:05;;;;;;;1999.90;999.90;;;15.40;99.90;;;;;;5044050;28;20458;-67
2022/05/27 02:09:36;;;;;;;1999.90;999.90;;;15.50;99.90;;;;;;5047527;28;20454;-67
2022/05/27 02:12:07;;;;;;;1999.90;999.90;;;15.50;99.90;;;;;;5043355;28;20470;-68
2022/05/27 02:14:40;;;;;;;1999.90;999.90;;;15.50;99.90;;;;;;5044498;28;20515;-67
2022/05/27 02:17:12;;;;;;;1999.90;999.90;;;15.50;99.90;;;;;;5042918;28;20489;-67
2022/05/27 02:19:45;;;;;;;1999.90;999.90;;;15.60;99.90;;;;;;5045828;28;21008;-67
2022/05/27 02:22:16;;;;;;;1999.90;999.90;;;15.50;99.90;;;;;;5043236;28;20903;-67
2022/05/27 02:24:46;;;;;;;1999.90;999.90;;;15.60;99.90;;;;;;5043128;28;20515;-67
2022/05/27 02:27:19;;;;;;;1999.90;999.90;;;15.50;99.90;;;;;;5043383;28;20513;-67
2022/05/27 02:29:48;;;;;;;1999.90;999.90;;;15.30;99.90;;;;;;5044803;28;20454;-67
2022/05/27 02:32:23;;;;;;;1999.90;999.90;;;15.30;99.90;;;;;;5044644;28;20473;-66
2022/05/27 02:35:08;;;;;;;1999.90;999.90;;;15.30;99.90;;;;;;5045031;28;20949;-67
2022/05/27 02:37:37;;;;;;;1999.90;999.90;;;15.40;99.90;;;;;;5043513;28;20453;-67
2022/05/27 02:40:08;;;;;;;1999.90;999.90;;;15.50;99.90;;;;;;5040960;28;20791;-67
2022/05/27 02:42:41;;;;;;;1999.90;999.90;;;15.60;99.90;;;;;;5045737;28;20485;-67
2022/05/27 02:45:17;;;;;;;1999.90;999.90;;;15.60;99.90;;;;;;5043715;28;21181;-67
2022/05/27 02:47:53;;;;;;;1999.90;999.90;;;15.60;99.90;;;;;;5043348;28;20450;-67
2022/05/27 02:50:28;;;;;;;1999.90;999.90;;;15.50;99.90;;;;;;5045095;28;21012;-67
2022/05/27 02:53:04;;;;;;;1999.90;999.90;;;15.60;99.90;;;;;;5040311;28;20882;-67
2022/05/27 02:55:46;;;;;;;1999.90;999.90;;;15.40;99.90;;;;;;5046900;28;20508;-68
2022/05/27 02:58:13;;;;;;;1999.90;999.90;;;15.40;99.90;;;;;;5041614;28;20462;-68
2022/05/27 03:00:40;;;;;;;1999.90;999.90;;;15.40;99.90;;;;;;5042945;28;20478;-67
2022/05/27 03:03:08;;;;;;;1999.90;999.90;;;15.40;99.90;;;;;;5040423;28;20553;-68
2022/05/27 03:05:44;;;;;;;1999.90;999.90;;;15.30;99.90;;;;;;5043752;28;21052;-68
2022/05/27 03:08:19;;;;;;;1999.90;999.90;;;15.30;99.90;;;;;;5043314;28;20547;-68
2022/05/27 03:10:55;;;;;;;1999.90;999.90;;;15.30;99.90;;;;;;5046984;28;21039;-67
2022/05/27 03:13:45;;;;;;;1999.90;999.90;;;15.30;99.90;;;;;;5042291;28;20994;-68
2022/05/27 03:16:22;;;;;;;1999.90;999.90;;;15.40;99.90;;;;;;5041461;28;20517;-67
2022/05/27 03:19:09;;;;;;;1999.90;999.90;;;15.40;99.90;;;;;;5044332;28;20462;-67
2022/05/27 03:21:46;;;;;;;1999.90;999.90;;;15.40;99.90;;;;;;5042973;28;20490;-67
2022/05/27 03:24:20;;;;;;;1999.90;999.90;;;15.30;99.90;;;;;;5040562;28;20462;-68
2022/05/27 03:26:59;;;;;;;1999.90;999.90;;;15.30;99.90;;;;;;5040429;28;20556;-67
2022/05/27 03:29:31;;;;;;;1999.90;999.90;;;15.30;99.90;;;;;;5041287;28;21167;-67
2022/05/27 03:32:05;;;;;;;1999.90;999.90;;;15.20;99.90;;;;;;5041054;28;20553;-66
2022/05/27 03:34:37;;;;;;;1999.90;999.90;;;15.20;99.90;;;;;;5046462;28;20516;-67
2022/05/27 03:37:08;;;;;;;1999.90;999.90;;;15.20;99.90;;;;;;5039619;28;20521;-68
2022/05/27 03:39:43;;;;;;;1999.90;999.90;;;15.30;99.90;;;;;;5043702;28;20519;-67
2022/05/27 03:42:11;;;;;;;1999.90;999.90;;;15.30;99.90;;;;;;5039164;28;20489;-68
2022/05/27 03:44:38;;;;;;;1999.90;999.90;;;15.40;99.90;;;;;;5042915;28;20462;-67
2022/05/27 03:47:05;;;;;;;1999.90;999.90;;;15.30;99.90;;;;;;5040272;28;21036;-67
2022/05/27 03:49:33;;;;;;;1999.90;999.90;;;15.40;99.90;;;;;;5042645;28;20474;-67
2022/05/27 03:52:06;;;;;;;1999.90;999.90;;;15.40;99.90;;;;;;5041107;28;20836;-68
2022/05/27 03:54:33;;;;;;;1999.90;999.90;;;15.40;99.90;;;;;;5043684;28;20519;-68
2022/05/27 03:57:00;;;;;;;1999.90;999.90;;;15.20;99.90;;;;;;5043632;28;20467;-67
2022/05/27 03:59:27;;;;;;;1999.90;999.90;;;15.30;99.90;;;;;;5040687;28;20871;-68
2022/05/27 04:01:56;;;;;;;1999.90;999.90;;;15.20;99.90;;;;;;5037887;28;20490;-67
2022/05/27 04:04:28;;;;;;;1999.90;999.90;;;15.30;99.90;;;;;;5052525;28;21000;-67
2022/05/27 04:06:57;;;;;;;1999.90;999.90;;;14.90;99.90;;;;;;5043562;28;21206;-68
2022/05/27 04:09:25;;;;;;;1999.90;999.90;;;14.60;99.90;;;;;;5041240;28;20456;-67
2022/05/27 04:11:53;;;;;;;1999.90;999.90;;;14.30;99.90;;;;;;5043999;28;20483;-67
2022/05/27 04:14:20;;;;;;;1999.90;999.90;;;14.10;99.90;;;;;;5044421;28;20470;-66
2022/05/27 04:16:48;;;;;;;1999.90;999.90;;;13.90;99.90;;;;;;5042052;28;20527;-65
2022/05/27 04:19:15;;;;;;;1999.90;999.90;;;13.80;99.90;;;;;;5043738;28;20543;-65
2022/05/27 04:21:41;;;;;;;1999.90;999.90;;;13.60;99.90;;;;;;5045255;28;20482;-65
2022/05/27 04:24:10;;;;;;;1999.90;999.90;;;13.50;99.90;;;;;;5039767;28;20467;-65
2022/05/27 04:26:38;;;;;;;1999.90;999.90;;;13.60;99.90;;;;;;5044790;28;20474;-65
2022/05/27 04:29:05;;;;;;;1999.90;999.90;;;13.50;99.90;;;;;;5039208;28;21035;-68
2022/05/27 04:31:31;;;;;;;1999.90;999.90;;;13.30;99.90;;;;;;5042258;28;21021;-65
2022/05/27 04:33:58;;;;;;;1999.90;999.90;;;13.20;99.90;;;;;;5039095;28;21082;-65
2022/05/27 04:36:25;;;;;;;1999.90;999.90;;;13.20;99.90;;;;;;5048390;28;20463;-66
2022/05/27 04:38:52;;;;;;;1999.90;999.90;;;13.30;99.90;;;;;;5039189;28;20470;-66
2022/05/27 04:41:23;;;;;;;1999.90;999.90;;;13.30;99.90;;;;;;5041136;28;20481;-67
2022/05/27 04:43:49;;;;;;;1999.90;999.90;;;13.30;99.90;;;;;;5040753;28;20494;-66
2022/05/27 04:46:16;;;;;;;1999.90;999.90;;;13.40;99.90;;;;;;5040700;28;20518;-66
2022/05/27 04:48:43;;;;;;;1999.90;999.90;;;13.40;99.90;;;;;;5041155;28;20542;-66
2022/05/27 04:51:09;;;;;;;1999.90;999.90;;;13.40;99.90;;;;;;5044882;28;20463;-66
2022/05/27 04:53:36;;;;;;;1999.90;999.90;;;13.50;99.90;;;;;;5042610;28;20559;-65
2022/05/27 04:56:03;;;;;;;1999.90;999.90;;;13.60;99.90;;;;;;5037673;28;20459;-67
2022/05/27 04:58:31;;;;;;;1999.90;999.90;;;13.70;99.90;;;;;;5044994;28;20459;-67
2022/05/27 05:00:58;;;;;;;1999.90;999.90;;;13.80;99.90;;;;;;5040644;28;20887;-68
2022/05/27 05:03:25;;;;;;;1999.90;999.90;;;13.80;99.90;;;;;;5039502;28;20486;-67
2022/05/27 05:05:51;;;;;;;1999.90;999.90;;;13.90;99.90;;;;;;5046147;28;20459;-67
2022/05/27 05:08:28;;;;;;;1999.90;999.90;;;13.70;99.90;;;;;;5038910;28;20463;-68
2022/05/27 05:10:55;;;;;;;1999.90;999.90;;;13.90;99.90;;;;;;5037440;28;20466;-67
2022/05/27 05:13:21;;;;;;;1999.90;999.90;;;14.00;99.90;;;;;;5038685;28;21453;-68
2022/05/27 05:15:49;;;;;;;1999.90;999.90;;;13.80;99.90;;;;;;5039007;28;20458;-67
2022/05/27 05:18:20;;;;;;;1999.90;999.90;;;13.80;99.90;;;;;;5045328;28;20454;-68
2022/05/27 05:20:46;;;;;;;1999.90;999.90;;;14.10;99.90;;;;;;5039740;28;20454;-68
2022/05/27 05:23:13;;;;;;;1999.90;999.90;;;13.90;99.90;;;;;;5037924;28;20491;-68
2022/05/27 05:25:39;;;;;;;1999.90;999.90;;;14.00;99.90;;;;;;5043791;28;20462;-67
2022/05/27 05:28:07;;;;;;;1999.90;999.90;;;14.10;99.90;;;;;;5037051;28;20467;-67
2022/05/27 05:30:34;;;;;;;1999.90;999.90;;;14.10;99.90;;;;;;5042536;28;20478;-68
2022/05/27 05:33:02;;;;;;;1999.90;999.90;;;14.30;99.90;;;;;;5040339;28;21009;-67
2022/05/27 05:35:29;;;;;;;1999.90;999.90;;;14.30;99.90;;;;;;5039029;28;20459;-67
2022/05/27 05:37:56;;;;;;;1999.90;999.90;;;14.30;99.90;;;;;;5036025;28;21005;-67
2022/05/27 05:40:23;;;;;;;1999.90;999.90;;;14.40;99.90;;;;;;5037110;28;20462;-67
2022/05/27 05:42:50;;;;;;;1999.90;999.90;;;14.60;99.90;;;;;;5040970;28;20617;-68
2022/05/27 05:45:18;;;;;;;1999.90;999.90;;;14.70;99.90;;;;;;5041347;28;20512;-67
2022/05/27 05:47:45;;;;;;;1999.90;999.90;;;14.80;99.90;;;;;;5040305;28;20567;-67
2022/05/27 05:50:15;;;;;;;1999.90;999.90;;;14.80;99.90;;;;;;5041015;28;20463;-68
2022/05/27 05:52:42;;;;;;;1999.90;999.90;;;15.00;99.90;;;;;;5042897;28;20889;-67
2022/05/27 05:55:10;;;;;;;1999.90;999.90;;;15.00;99.90;;;;;;5038679;28;20485;-68
2022/05/27 05:57:39;;;;;;;1999.90;999.90;;;14.80;99.90;;;;;;5038611;28;20833;-68
2022/05/27 06:00:07;;;;;;;1999.90;999.90;;;14.90;99.90;;;;;;5038812;28;20545;-67
2022/05/27 06:02:34;;;;;;;1999.90;999.90;;;14.90;99.90;;;;;;5043459;28;20494;-68
2022/05/27 06:05:03;;;;;;;1999.90;999.90;;;14.90;99.90;;;;;;5035784;28;20841;-67
2022/05/27 06:07:31;;;;;;;1999.90;999.90;;;15.00;99.90;;;;;;5043611;28;20467;-68
2022/05/27 06:09:58;;;;;;;1999.90;999.90;;;15.20;99.90;;;;;;5040046;28;20485;-68
2022/05/27 06:12:25;;;;;;;1999.90;999.90;;;15.30;99.90;;;;;;5037297;28;20485;-67
2022/05/27 06:14:53;;;;;;;1999.90;999.90;;;15.40;99.90;;;;;;5039040;28;20462;-69
2022/05/27 06:17:19;;;;;;;1999.90;999.90;;;15.50;99.90;;;;;;5041515;28;20469;-68
2022/05/27 06:19:46;;;;;;;1999.90;999.90;;;15.50;99.90;;;;;;5041967;28;21017;-68
2022/05/27 06:22:13;;;;;;;1999.90;999.90;;;15.50;99.90;;;;;;5039463;28;20910;-68
2022/05/27 06:24:41;;;;;;;1999.90;999.90;;;15.40;99.90;;;;;;5046766;28;20516;-68
2022/05/27 06:27:08;;;;;;;1999.90;999.90;;;15.50;99.90;;;;;;5039044;28;20463;-68
2022/05/27 06:35:04;;;;;;;1999.90;999.90;;;15.40;99.90;;;;;;5039131;28;20454;-69
2022/05/27 06:37:31;;;;;;;1999.90;999.90;;;15.40;99.90;;;;;;5042977;28;20501;-68
2022/05/27 06:39:59;;;;;;;1999.90;999.90;;;15.80;99.90;;;;;;5049421;28;20947;-68
2022/05/27 06:42:27;;;;;;;1999.90;999.90;;;16.20;99.90;;;;;;5050146;28;20494;-68
2022/05/27 06:44:54;;;;;;;1999.90;999.90;;;16.60;99.90;;;;;;5048337;28;20463;-68
2022/05/27 06:47:20;;;;;;;1999.90;999.90;;;16.90;99.90;;;;;;5041645;28;20466;-69
2022/05/27 06:49:48;;;;;;;1999.90;999.90;;;17.00;99.90;;;;;;5042730;28;20466;-69
2022/05/27 06:52:16;;;;;;;1999.90;999.90;;;17.00;99.90;;;;;;5038334;28;20474;-69
2022/05/27 06:54:43;;;;;;;1999.90;999.90;;;17.20;99.90;;;;;;5046034;28;21050;-69
2022/05/27 06:57:12;;;;;;;1999.90;999.90;;;17.10;99.90;;;;;;5038397;28;20533;-68
2022/05/27 06:59:38;;;;;;;1999.90;999.90;;;16.80;99.90;;;;;;5043280;28;20528;-69
2022/05/27 07:02:05;;;;;;;1999.90;999.90;;;16.90;99.90;;;;;;5045623;28;20487;-69
2022/05/27 07:04:32;;;;;;;1999.90;999.90;;;17.00;99.90;;;;;;5045539;28;20577;-69
2022/05/27 07:06:59;;;;;;;1999.90;999.90;;;17.00;99.90;;;;;;5044162;28;20447;-69
2022/05/27 07:09:26;;;;;;;1999.90;999.90;;;17.10;99.90;;;;;;5040096;28;20528;-69
2022/05/27 07:11:56;;;;;;;1999.90;999.90;;;17.20;99.90;;;;;;5043162;28;20549;-68
2022/05/27 07:14:24;;;;;;;1999.90;999.90;;;17.30;99.90;;;;;;5039486;28;20521;-68
2022/05/27 07:16:51;;;;;;;1999.90;999.90;;;17.30;99.90;;;;;;5047360;28;20461;-69
2022/05/27 07:19:19;;;;;;;1999.90;999.90;;;17.60;99.90;;;;;;5046229;28;20463;-68
2022/05/27 07:21:46;;;;;;;1999.90;999.90;;;17.90;99.90;;;;;;5042859;28;20486;-68
2022/05/27 07:24:15;;;;;;;1999.90;999.90;;;17.80;99.90;;;;;;5037725;28;20455;-67
2022/05/27 07:26:43;;;;;;;1999.90;999.90;;;17.80;99.90;;;;;;5039197;28;20512;-68
2022/05/27 07:29:11;;;;;;;1999.90;999.90;;;17.90;99.90;;;;;;5037648;28;20468;-67
2022/05/27 07:31:41;;;;;;;1999.90;999.90;;;18.10;99.90;;;;;;5038606;28;20463;-67
2022/05/27 07:34:08;;;;;;;1999.90;999.90;;;18.00;99.90;;;;;;5048140;28;21008;-68
2022/05/27 07:36:35;;;;;;;1999.90;999.90;;;18.00;99.90;;;;;;5039755;28;20467;-68
2022/05/27 07:39:03;;;;;;;1999.90;999.90;;;18.20;99.90;;;;;;5037387;28;20814;-69
2022/05/27 07:41:30;;;;;;;1999.90;999.90;;;18.60;99.90;;;;;;5039746;28;20470;-67
2022/05/27 07:43:59;;;;;;;1999.90;999.90;;;18.80;99.90;;;;;;5044805;28;20497;-68
2022/05/27 07:46:26;;;;;;;1999.90;999.90;;;18.90;99.90;;;;;;5039615;28;20541;-68
2022/05/27 07:48:55;;;;;;;1999.90;999.90;;;18.90;99.90;;;;;;5042517;28;20528;-68
2022/05/27 07:51:22;;;;;;;1999.90;999.90;;;18.80;99.90;;;;;;5046247;28;20451;-68
2022/05/27 07:53:49;;;;;;;1999.90;999.90;;;18.80;99.90;;;;;;5047307;28;20517;-67
2022/05/27 07:56:15;;;;;;;1999.90;999.90;;;18.60;99.90;;;;;;5052614;28;20888;-68
2022/05/27 07:58:42;;;;;;;1999.90;999.90;;;18.10;99.90;;;;;;5035165;28;20952;-69
2022/05/27 08:01:09;;;;;;;1999.90;999.90;;;18.00;99.90;;;;;;5042291;28;20463;-68
2022/05/27 08:03:36;;;;;;;1999.90;999.90;;;17.80;99.90;;;;;;5044424;28;20488;-69
2022/05/27 08:06:04;;;;;;;1999.90;999.90;;;17.60;99.90;;;;;;5047723;28;20867;-70
2022/05/27 08:08:31;;;;;;;1999.90;999.90;;;17.60;99.90;;;;;;5036302;28;20505;-68
2022/05/27 08:10:58;;;;;;;1999.90;999.90;;;17.50;99.90;;;;;;5050057;28;20508;-69
2022/05/27 08:13:26;;;;;;;1999.90;999.90;;;17.40;99.90;;;;;;5048791;28;20497;-68
2022/05/27 08:15:53;;;;;;;1999.90;999.90;;;17.20;99.90;;;;;;5045813;28;20466;-69
2022/05/27 08:18:20;;;;;;;1999.90;999.90;;;17.00;99.90;;;;;;5043122;28;20464;-69
2022/05/27 08:20:48;;;;;;;1999.90;999.90;;;16.90;99.90;;;;;;5044087;28;20462;-71
2022/05/27 08:23:16;;;;;;;1999.90;999.90;;;16.90;99.90;;;;;;5038746;28;20487;-70
2022/05/27 08:25:43;;;;;;;1999.90;999.90;;;17.10;99.90;;;;;;5044145;28;20512;-72
2022/05/27 08:28:10;;;;;;;1999.90;999.90;;;16.90;99.90;;;;;;5046098;28;20470;-71
2022/05/27 08:30:40;;;;;;;1999.90;999.90;;;16.80;99.90;;;;;;5041980;28;20469;-71
2022/05/27 08:33:07;;;;;;;1999.90;999.90;;;16.60;99.90;;;;;;5045046;28;20482;-71
2022/05/27 08:38:24;;;;;;;1999.90;999.90;;;17.00;99.90;;;;;;5039195;28;20454;-70
2022/05/27 08:41:20;;;;;;;1999.90;999.90;;;17.30;99.90;;;;;;5044701;28;20464;-71
2022/05/27 08:44:18;;;;;;;1999.90;999.90;;;17.60;99.90;;;;;;5048101;28;20532;-68
2022/05/27 08:47:00;;;;;;;1999.90;999.90;;;18.10;99.90;;;;;;5043072;28;20467;-68
2022/05/27 08:49:34;;;;;;;1999.90;999.90;;;18.10;99.90;;;;;;5046128;28;20802;-68
2022/05/27 08:52:09;;;;;;;1999.90;999.90;;;17.70;99.90;;;;;;5039449;28;20478;-67
2022/05/27 08:54:40;;;;;;;1999.90;999.90;;;17.70;99.90;;;;;;5038329;28;20461;-68
2022/05/27 08:59:58;;;;;;;1999.90;999.90;;;17.70;99.90;;;;;;5046711;28;20449;-71
2022/05/27 09:02:31;;;;;;;1999.90;999.90;;;17.50;99.90;;;;;;5043206;28;20509;-68
2022/05/27 09:05:06;;;;;;;1999.90;999.90;;;17.80;99.90;;;;;;5052003;28;20492;-69
2022/05/27 09:07:41;;;;;;;1999.90;999.90;;;18.10;99.90;;;;;;5052097;28;20507;-68
2022/05/27 09:10:13;;;;;;;1999.90;999.90;;;18.20;99.90;;;;;;5050780;28;20457;-69
2022/05/27 09:12:48;;;;;;;1999.90;999.90;;;18.30;99.90;;;;;;5044207;28;20478;-69
2022/05/27 09:15:26;;;;;;;1999.90;999.90;;;18.70;99.90;;;;;;5046699;28;20926;-69
2022/05/27 09:18:01;;;;;;;1999.90;999.90;;;18.80;99.90;;;;;;5047779;28;20462;-70
2022/05/27 09:20:39;;;;;;;1999.90;999.90;;;18.70;99.90;;;;;;5041805;28;20469;-69
2022/05/27 09:23:18;;;;;;;1999.90;999.90;;;18.40;99.90;;;;;;5043761;28;20481;-69
2022/05/27 09:26:00;;;;;;;1999.90;999.90;;;18.40;99.90;;;;;;5045017;28;20532;-68
2022/05/27 09:28:37;;;;;;;1999.90;999.90;;;18.10;99.90;;;;;;5046098;28;20809;-69
2022/05/27 09:31:07;;;;;;;1999.90;999.90;;;17.90;99.90;;;;;;5045326;28;21008;-68
2022/05/27 09:33:34;;;;;;;1999.90;999.90;;;17.40;99.90;;;;;;5038975;28;20532;-70
2022/05/27 09:36:06;;;;;;;1999.90;999.90;;;17.50;99.90;;;;;;5041415;28;20532;-67
2022/05/27 09:38:35;;;;;;;1999.90;999.90;;;17.80;99.90;;;;;;5048543;28;20524;-68
2022/05/27 09:41:10;;;;;;;1999.90;999.90;;;17.80;99.90;;;;;;5044063;28;20504;-68
2022/05/27 09:43:42;;;;;;;1999.90;999.90;;;17.80;99.90;;;;;;5044608;28;20486;-68
2022/05/27 09:46:12;;;;;;;1999.90;999.90;;;17.80;99.90;;;;;;5042502;28;21021;-69
2022/05/27 09:48:39;;;;;;;1999.90;999.90;;;18.10;99.90;;;;;;5039996;28;20516;-68
2022/05/27 09:51:09;;;;;;;1999.90;999.90;;;18.20;99.90;;;;;;5051647;28;20823;-68
2022/05/27 09:53:39;;;;;;;1999.90;999.90;;;18.40;99.90;;;;;;5049282;28;20479;-68
2022/05/27 09:56:11;;;;;;;1999.90;999.90;;;18.30;99.90;;;;;;5047498;28;20581;-68
2022/05/27 09:58:41;;;;;;;1999.90;999.90;;;18.10;99.90;;;;;;5046568;28;20466;-69
2022/05/27 10:01:21;;;;;;;1999.90;999.90;;;18.40;99.90;;;;;;5039951;28;20471;-68
2022/05/27 10:04:00;;;;;;;1999.90;999.90;;;18.60;98.10;;;;;;5040838;28;20505;-69
2022/05/27 10:06:29;;;;;;;1999.90;999.90;;;18.70;96.30;;;;;;5048660;28;21027;-68
2022/05/27 10:08:57;;;;;;;1999.90;999.90;;;18.50;96.80;;;;;;5042396;28;20524;-70
2022/05/27 10:11:27;;;;;;;1999.90;999.90;;;18.50;97.10;;;;;;5043039;28;20462;-68
2022/05/27 10:14:19;;;;;;;1999.90;999.90;;;18.50;97.00;;;;;;5042940;28;21041;-69
2022/05/27 10:17:04;;;;;;;1999.90;999.90;;;18.80;97.60;;;;;;5035358;28;20436;-68
2022/05/27 10:19:31;;;;;;;1999.90;999.90;;;18.70;97.20;;;;;;5035022;28;20922;-68
2022/05/27 10:22:00;;;;;;;1999.90;999.90;;;18.60;97.70;;;;;;5040908;28;20487;-68
2022/05/27 10:24:29;;;;;;;1999.90;999.90;;;18.80;96.80;;;;;;5042779;28;20478;-68
2022/05/27 10:27:08;;;;;;;1999.90;999.90;;;19.00;96.30;;;;;;5043398;28;20467;-66
2022/05/27 10:29:47;;;;;;;1999.90;999.90;;;19.30;95.40;;;;;;5048044;28;20461;-67
2022/05/27 10:32:27;;;;;;;1999.90;999.90;;;19.60;95.80;;;;;;5046991;28;20536;-67
2022/05/27 10:34:54;;;;;;;1999.90;999.90;;;19.70;95.20;;;;;;5046703;28;20500;-67
2022/05/27 10:37:37;;;;;;;1999.90;999.90;;;20.10;95.60;;;;;;5050264;28;20458;-67
2022/05/27 10:40:15;;;;;;;1999.90;999.90;;;20.20;95.00;;;;;;5042289;28;20470;-67
2022/05/27 10:42:52;;;;;;;1999.90;999.90;;;20.20;93.90;;;;;;5043401;28;20530;-67
2022/05/27 10:45:22;;;;;;;1999.90;999.90;;;20.00;94.70;;;;;;5042775;28;20819;-67
2022/05/27 10:48:15;;;;;;;1999.90;999.90;;;19.90;94.60;;;;;;5043913;28;20469;-68
2022/05/27 10:50:46;;;;;;;1999.90;999.90;;;19.60;92.00;;;;;;5043936;28;20859;-68
2022/05/27 10:53:41;;;;;;;1999.90;999.90;;;19.90;93.20;;;;;;5040372;28;20478;-67
2022/05/27 10:56:21;;;;;;;1999.90;999.90;;;20.30;92.40;;;;;;5044673;28;20459;-69
2022/05/27 11:05:01;;;;;;;1999.90;999.90;;;21.20;91.00;;;;;;5037377;28;20485;-69
2022/05/27 11:07:36;;;;;;;1999.90;999.90;;;21.00;90.20;;;;;;5041794;28;20459;-67
2022/05/27 11:10:15;;;;;;;1999.90;999.90;;;21.00;90.30;;;;;;5042979;28;20457;-67
2022/05/27 11:15:47;;;;;;;1999.90;999.90;;;20.40;90.50;;;;;;5044894;28;20453;-67
2022/05/27 11:18:25;;;;;;;1999.90;999.90;;;19.70;91.20;;;;;;5038912;28;20528;-68
2022/05/27 11:21:16;;;;;;;1999.90;999.90;;;19.30;92.50;;;;;;5049280;28;20504;-68
2022/05/27 11:24:10;;;;;;;1999.90;999.90;;;19.10;96.50;;;;;;5038436;28;20543;-68
2022/05/27 11:26:46;;;;;;;1999.90;999.90;;;18.60;99.90;;;;;;5038423;28;20467;-68
2022/05/27 11:29:34;;;;;;;1999.90;999.90;;;17.90;99.90;;;;;;5046766;28;20466;-68
2022/05/27 11:32:12;;;;;;;1999.90;999.90;;;17.70;99.90;;;;;;5039477;28;20512;-69
2022/05/27 11:34:49;;;;;;;1999.90;999.90;;;17.30;99.90;;;;;;5038490;28;20894;-68
2022/05/27 11:37:46;;;;;;;1999.90;999.90;;;17.00;99.90;;;;;;5040239;28;20521;-68
2022/05/27 11:40:27;;;;;;;1999.90;999.90;;;17.00;99.90;;;;;;5035885;28;20463;-68
2022/05/27 11:43:29;;;;;;;1999.90;999.90;;;16.80;99.90;;;;;;5042057;28;20486;-68
2022/05/27 11:46:11;;;;;;;1999.90;999.90;;;16.80;99.90;;;;;;5049985;28;20549;-68
2022/05/27 11:48:47;;;;;;;1999.90;999.90;;;16.80;99.90;;;;;;5047868;28;20463;-68
2022/05/27 11:51:29;;;;;;;1999.90;999.90;;;16.80;99.90;;;;;;5047674;28;20466;-69
2022/05/27 11:54:20;;;;;;;1999.90;999.90;;;17.20;99.90;;;;;;5041132;28;20451;-68
2022/05/27 11:57:01;;;;;;;1999.90;999.90;;;17.50;99.90;;;;;;5038834;28;20962;-68
2022/05/27 11:59:33;;;;;;;1999.90;999.90;;;17.60;99.90;;;;;;5039949;28;20473;-69
2022/05/27 12:02:05;;;;;;;1999.90;999.90;;;17.70;99.90;;;;;;5036008;28;20475;-68
2022/05/27 12:04:41;;;;;;;1999.90;999.90;;;18.10;99.90;;;;;;5037904;28;20525;-68
2022/05/27 12:07:20;;;;;;;1999.90;999.90;;;18.50;98.50;;;;;;5044947;28;20467;-69
2022/05/27 12:09:51;;;;;;;1999.90;999.90;;;18.40;97.80;;;;;;5046122;28;20454;-68
2022/05/27 12:12:22;;;;;;;1999.90;999.90;;;18.20;97.00;;;;;;5050059;28;20505;-68
2022/05/27 12:14:55;;;;;;;1999.90;999.90;;;18.30;97.20;;;;;;5037209;28;20498;-68
2022/05/27 12:17:35;;;;;;;1999.90;999.90;;;18.50;94.30;;;;;;5039204;28;20467;-69
2022/05/27 12:20:04;;;;;;;1999.90;999.90;;;18.60;92.80;;;;;;5038499;28;20524;-69
2022/05/27 12:22:35;;;;;;;1999.90;999.90;;;18.80;91.30;;;;;;5040138;28;20495;-68
2022/05/27 12:25:05;;;;;;;1999.90;999.90;;;19.20;91.90;;;;;;5039038;28;20483;-66
2022/05/27 12:27:33;;;;;;;1999.90;999.90;;;19.90;92.70;;;;;;5043898;28;20462;-68
2022/05/27 12:30:00;;;;;;;1999.90;999.90;;;19.60;92.30;;;;;;5048054;28;20462;-68
2022/05/27 12:32:28;;;;;;;1999.90;999.90;;;19.30;91.90;;;;;;5051055;28;20478;-67
2022/05/27 12:35:21;;;;;;;1999.90;999.90;;;19.10;93.30;;;;;;5043473;28;20446;-69
2022/05/27 12:37:50;;;;;;;1999.90;999.90;;;18.90;93.30;;;;;;5052015;28;20845;-69
2022/05/27 12:40:32;;;;;;;1999.90;999.90;;;18.90;92.50;;;;;;5052159;28;20946;-68
2022/05/27 12:43:02;;;;;;;1999.90;999.90;;;19.10;94.00;;;;;;5052032;28;20527;-68
2022/05/27 12:45:46;;;;;;;1999.90;999.90;;;19.40;94.00;;;;;;5052005;28;20556;-69